Time;durP1;ratioP1;P1;durP2;ratioP2;P2;SDS_P1;SDS_P2;PMS_P1;PMS_P2;Temp;Humidity;BMP_temperature;BMP_pressure;BME280_temperature;BME280_humidity;BME280_pressure;Samples;Min_cycle;Max_cycle;Signal;HPM_P1;HPM_P2
2023/02/24 00:02:20;;;;;;;;;27.50;26.00;;;;;;;;5028976;28;11525;-70
2023/02/24 00:04:50;;;;;;;;;32.25;29.75;;;;;;;;5029011;28;8912;-70
2023/02/24 00:07:16;;;;;;;;;39.00;32.25;;;;;;;;5028609;28;8830;-70
2023/02/24 00:09:43;;;;;;;;;33.00;29.50;;;;;;;;5027398;28;11534;-70
2023/02/24 00:12:12;;;;;;;;;32.50;30.25;;;;;;;;5031192;28;8804;-70
2023/02/24 00:14:38;;;;;;;;;37.75;31.75;;;;;;;;5033046;28;11563;-69
2023/02/24 00:17:06;;;;;;;;;36.75;34.75;;;;;;;;5032864;28;11557;-70
2023/02/24 00:19:32;;;;;;;;;40.25;37.50;;;;;;;;5032761;28;11571;-70
2023/02/24 00:21:58;;;;;;;;;39.50;33.25;;;;;;;;5032318;28;11658;-70
2023/02/24 00:24:24;;;;;;;;;38.50;37.00;;;;;;;;5023584;28;8826;-69
2023/02/24 00:26:54;;;;;;;;;38.75;36.25;;;;;;;;5013001;28;11626;-70
2023/02/24 00:29:19;;;;;;;;;44.75;41.75;;;;;;;;5012978;28;8791;-70
2023/02/24 00:31:45;;;;;;;;;46.25;39.00;;;;;;;;5012721;28;11644;-70
2023/02/24 00:34:11;;;;;;;;;42.50;40.25;;;;;;;;5012764;28;8830;-70
2023/02/24 00:36:37;;;;;;;;;38.25;35.50;;;;;;;;5012560;28;11580;-69
2023/02/24 00:39:10;;;;;;;;;40.25;33.50;;;;;;;;5012560;28;8782;-71
2023/02/24 00:41:37;;;;;;;;;45.50;33.75;;;;;;;;5012154;28;8861;-70
2023/02/24 00:44:05;;;;;;;;;32.75;29.75;;;;;;;;5012696;28;11564;-70
2023/02/24 00:46:34;;;;;;;;;33.50;29.25;;;;;;;;5012615;28;11561;-70
2023/02/24 00:49:03;;;;;;;;;30.00;26.00;;;;;;;;5010882;28;11561;-70
2023/02/24 00:51:28;;;;;;;;;26.75;24.25;;;;;;;;5012447;28;12407;-70
2023/02/24 00:53:55;;;;;;;;;28.50;22.00;;;;;;;;5012481;28;11541;-70
2023/02/24 00:56:25;;;;;;;;;24.25;22.00;;;;;;;;5011273;28;8916;-69
2023/02/24 00:58:51;;;;;;;;;28.50;22.25;;;;;;;;5012399;28;11679;-70
2023/02/24 01:01:18;;;;;;;;;27.25;24.00;;;;;;;;5011790;28;11668;-70
2023/02/24 01:03:44;;;;;;;;;21.50;18.50;;;;;;;;5012100;28;11576;-70
2023/02/24 01:06:13;;;;;;;;;32.50;26.00;;;;;;;;5012205;28;11540;-70
2023/02/24 01:08:39;;;;;;;;;25.50;18.50;;;;;;;;5012357;28;8802;-70
2023/02/24 01:13:48;;;;;;;;;26.00;23.75;;;;;;;;5012281;28;8798;-70
2023/02/24 01:16:17;;;;;;;;;25.50;23.00;;;;;;;;5011555;28;11676;-70
2023/02/24 01:18:42;;;;;;;;;31.75;28.00;;;;;;;;5012163;28;8825;-70
2023/02/24 01:21:08;;;;;;;;;23.75;22.50;;;;;;;;5010162;28;11668;-70
2023/02/24 01:23:33;;;;;;;;;31.00;25.00;;;;;;;;5011423;28;8818;-70
2023/02/24 01:25:59;;;;;;;;;29.00;22.00;;;;;;;;5011639;28;8915;-70
2023/02/24 01:28:27;;;;;;;;;25.50;22.50;;;;;;;;5011903;28;8778;-70
2023/02/24 01:30:53;;;;;;;;;25.75;24.50;;;;;;;;5011661;28;11587;-70
2023/02/24 01:33:19;;;;;;;;;29.25;25.50;;;;;;;;5011742;28;11541;-70
2023/02/24 01:35:44;;;;;;;;;26.25;26.25;;;;;;;;5011231;28;8892;-70
2023/02/24 01:38:10;;;;;;;;;28.00;25.25;;;;;;;;5011443;28;8904;-70
2023/02/24 01:40:35;;;;;;;;;29.00;26.00;;;;;;;;5011388;28;8895;-70
2023/02/24 01:43:01;;;;;;;;;29.25;24.75;;;;;;;;5011378;28;8871;-69
2023/02/24 01:45:27;;;;;;;;;29.25;25.25;;;;;;;;5011489;28;8806;-70
2023/02/24 01:47:55;;;;;;;;;34.50;28.50;;;;;;;;5011542;28;9525;-70
2023/02/24 01:50:22;;;;;;;;;30.50;27.50;;;;;;;;5011091;28;11648;-70
2023/02/24 01:52:51;;;;;;;;;32.75;31.00;;;;;;;;5010928;28;11559;-70
2023/02/24 01:55:23;;;;;;;;;31.75;27.00;;;;;;;;5010871;28;11696;-70
2023/02/24 01:57:51;;;;;;;;;32.50;26.50;;;;;;;;5011111;28;11590;-71
2023/02/24 02:00:59;;;;;;;;;29.75;27.50;;;;;;;;5011105;28;11549;-70
2023/02/24 02:03:15;;;;;;;;;29.75;29.75;;;;;;;;5003015;28;11566;-70
2023/02/24 02:05:41;;;;;;;;;35.00;30.00;;;;;;;;5010982;28;11554;-71
2023/02/24 02:08:08;;;;;;;;;29.25;27.75;;;;;;;;5011138;28;11651;-70
2023/02/24 02:10:33;;;;;;;;;40.75;29.25;;;;;;;;5010546;28;11541;-71
2023/02/24 02:12:59;;;;;;;;;34.25;31.50;;;;;;;;5010975;28;11585;-71
2023/02/24 02:15:26;;;;;;;;;33.00;29.00;;;;;;;;5011076;28;8782;-70
2023/02/24 02:18:04;;;;;;;;;37.75;32.75;;;;;;;;5011087;28;8782;-69
2023/02/24 02:20:47;;;;;;;;;36.50;30.00;;;;;;;;5010600;28;11576;-69
2023/02/24 02:23:22;;;;;;;;;20.00;6.75;;;;;;;;5011021;28;11548;-69
2023/02/24 02:26:02;;;;;;;;;32.75;29.00;;;;;;;;5010589;28;11606;-69
2023/02/24 02:28:31;;;;;;;;;30.00;26.75;;;;;;;;5010304;28;11559;-70
2023/02/24 02:31:00;;;;;;;;;40.00;35.00;;;;;;;;5010774;28;11771;-69
2023/02/24 02:33:39;;;;;;;;;33.75;31.50;;;;;;;;5008686;28;11638;-69
2023/02/24 02:36:05;;;;;;;;;34.67;34.33;;;;;;;;5010423;28;12364;-70
2023/02/24 02:38:42;;;;;;;;;39.50;31.75;;;;;;;;5010363;28;11555;-70
2023/02/24 02:41:14;;;;;;;;;37.00;32.33;;;;;;;;5009988;28;11578;-70
2023/02/24 02:43:47;;;;;;;;;35.00;31.25;;;;;;;;5010158;28;11541;-69
2023/02/24 02:46:33;;;;;;;;;34.67;31.33;;;;;;;;5009966;28;12288;-69
2023/02/24 02:49:01;;;;;;;;;39.33;35.33;;;;;;;;5008813;28;11717;-70
2023/02/24 02:51:32;;;;;;;;;38.00;29.00;;;;;;;;5008549;28;11696;-70
2023/02/24 02:53:58;;;;;;;;;36.50;31.00;;;;;;;;5015211;28;11554;-70
2023/02/24 02:56:29;;;;;;;;;31.33;30.00;;;;;;;;5029779;28;11696;-69
2023/02/24 02:58:55;;;;;;;;;34.00;33.67;;;;;;;;5029860;28;8804;-70
2023/02/24 03:01:23;;;;;;;;;45.33;39.00;;;;;;;;5028176;28;11536;-69
2023/02/24 03:03:51;;;;;;;;;37.33;34.00;;;;;;;;5029412;28;8830;-70
2023/02/24 03:06:16;;;;;;;;;48.33;39.33;;;;;;;;5029616;28;8807;-70
2023/02/24 03:08:47;;;;;;;;;35.33;33.67;;;;;;;;5029493;28;8795;-69
2023/02/24 03:11:15;;;;;;;;;41.00;38.33;;;;;;;;5028105;28;8808;-69
2023/02/24 03:13:41;;;;;;;;;42.00;40.00;;;;;;;;5029669;28;8806;-70
2023/02/24 03:16:09;;;;;;;;;53.33;41.00;;;;;;;;5044779;28;8812;-69
2023/02/24 03:18:39;;;;;;;;;45.67;39.00;;;;;;;;5029571;28;8796;-69
2023/02/24 03:21:06;;;;;;;;;40.33;38.00;;;;;;;;5028864;28;8847;-69
2023/02/24 03:23:35;;;;;;;;;47.67;43.33;;;;;;;;5044641;28;8842;-68
2023/02/24 03:26:17;;;;;;;;;45.67;42.33;;;;;;;;5029220;28;8799;-69
2023/02/24 03:28:52;;;;;;;;;53.33;41.67;;;;;;;;5029552;28;9591;-70
2023/02/24 03:31:21;;;;;;;;;46.33;39.00;;;;;;;;5029179;28;8807;-70
2023/02/24 03:33:56;;;;;;;;;45.33;38.00;;;;;;;;5029327;28;8886;-70
2023/02/24 03:36:22;;;;;;;;;47.33;41.67;;;;;;;;5029319;28;8815;-70
2023/02/24 03:38:49;;;;;;;;;47.00;39.00;;;;;;;;5029125;28;9538;-70
2023/02/24 03:41:15;;;;;;;;;46.00;40.00;;;;;;;;5043939;28;8847;-70
2023/02/24 03:43:46;;;;;;;;;39.67;32.33;;;;;;;;5029168;28;8969;-70
2023/02/24 03:46:13;;;;;;;;;49.33;40.33;;;;;;;;5028832;28;8811;-70
2023/02/24 03:48:42;;;;;;;;;53.00;44.33;;;;;;;;5029086;28;8795;-70
2023/02/24 03:51:09;;;;;;;;;46.67;39.67;;;;;;;;5028728;28;8836;-70
2023/02/24 03:53:57;;;;;;;;;50.00;42.00;;;;;;;;5028965;28;8839;-70
2023/02/24 03:56:28;;;;;;;;;43.33;39.33;;;;;;;;5028573;28;8811;-70
2023/02/24 03:58:54;;;;;;;;;44.33;40.00;;;;;;;;5028769;28;8800;-70
2023/02/24 04:01:36;;;;;;;;;52.33;40.67;;;;;;;;5028855;28;8962;-70
2023/02/24 04:04:22;;;;;;;;;46.33;41.33;;;;;;;;5029087;28;8792;-70
2023/02/24 04:06:53;;;;;;;;;48.00;41.33;;;;;;;;5021189;28;8888;-71
2023/02/24 04:09:21;;;;;;;;;48.33;39.67;;;;;;;;5028905;28;8874;-71
2023/02/24 04:11:51;;;;;;;;;36.33;32.33;;;;;;;;5028876;28;8954;-70
2023/02/24 04:14:24;;;;;;;;;34.00;30.00;;;;;;;;5027643;28;8888;-70
2023/02/24 04:16:53;;;;;;;;;45.67;39.67;;;;;;;;5043596;28;8808;-70
2023/02/24 04:19:20;;;;;;;;;49.00;41.33;;;;;;;;5027311;28;8816;-70
2023/02/24 04:21:47;;;;;;;;;45.33;39.00;;;;;;;;5028855;28;8820;-69
2023/02/24 04:24:15;;;;;;;;;51.00;42.67;;;;;;;;5028842;28;8803;-69
2023/02/24 04:26:43;;;;;;;;;48.67;40.00;;;;;;;;5028665;28;8780;-70
2023/02/24 04:29:16;;;;;;;;;47.00;40.33;;;;;;;;5027352;28;9522;-70
2023/02/24 04:31:42;;;;;;;;;42.67;39.33;;;;;;;;5027204;28;8828;-69
2023/02/24 04:34:08;;;;;;;;;39.67;36.67;;;;;;;;5043775;28;8917;-69
2023/02/24 04:36:33;;;;;;;;;49.67;39.33;;;;;;;;5026693;28;8843;-70
2023/02/24 04:38:59;;;;;;;;;42.67;38.67;;;;;;;;5043614;28;8889;-69
2023/02/24 04:41:24;;;;;;;;;45.67;39.33;;;;;;;;5028281;28;8827;-69
2023/02/24 04:43:50;;;;;;;;;45.33;38.33;;;;;;;;5028491;28;8792;-69
2023/02/24 04:46:16;;;;;;;;;40.00;35.67;;;;;;;;5028446;28;8934;-69
2023/02/24 04:48:41;;;;;;;;;41.00;38.00;;;;;;;;5043552;28;8807;-69
2023/02/24 04:51:06;;;;;;;;;42.00;37.67;;;;;;;;5028248;28;8955;-69
2023/02/24 04:53:32;;;;;;;;;43.00;39.33;;;;;;;;5043287;28;8965;-70
2023/02/24 04:56:01;;;;;;;;;43.33;37.67;;;;;;;;5027856;28;8858;-70
2023/02/24 04:58:29;;;;;;;;;39.00;35.00;;;;;;;;5030821;28;8795;-69
2023/02/24 05:00:55;;;;;;;;;39.00;36.67;;;;;;;;5031866;28;8842;-70
2023/02/24 05:03:25;;;;;;;;;45.33;39.00;;;;;;;;5031746;28;8816;-70
2023/02/24 05:05:51;;;;;;;;;35.33;35.33;;;;;;;;5032044;28;8815;-70
2023/02/24 05:08:17;;;;;;;;;41.00;39.67;;;;;;;;5031900;28;8796;-70
2023/02/24 05:10:44;;;;;;;;;35.67;34.67;;;;;;;;5031509;28;9503;-69
2023/02/24 05:13:12;;;;;;;;;41.67;37.67;;;;;;;;5031063;28;9597;-69
2023/02/24 05:15:39;;;;;;;;;52.67;40.00;;;;;;;;5031378;28;8820;-69
2023/02/24 05:18:08;;;;;;;;;42.33;39.00;;;;;;;;5031320;28;8871;-70
2023/02/24 05:23:25;;;;;;;;;45.67;37.00;;;;;;;;5031888;28;8808;-70
2023/02/24 05:25:53;;;;;;;;;44.00;36.67;;;;;;;;5031325;28;9507;-69
2023/02/24 05:28:21;;;;;;;;;40.00;36.67;;;;;;;;5031351;28;8823;-69
2023/02/24 05:30:47;;;;;;;;;43.00;40.00;;;;;;;;5030956;28;9033;-69
2023/02/24 05:33:12;;;;;;;;;42.67;38.33;;;;;;;;5029807;28;8885;-70
2023/02/24 05:35:38;;;;;;;;;34.67;33.67;;;;;;;;5031157;28;8799;-70
2023/02/24 05:38:06;;;;;;;;;45.33;38.67;;;;;;;;5031312;28;9691;-71
2023/02/24 05:40:32;;;;;;;;;39.00;37.33;;;;;;;;5030854;28;8827;-71
2023/02/24 05:43:02;;;;;;;;;34.00;34.00;;;;;;;;5031211;28;8792;-70
2023/02/24 05:45:29;;;;;;;;;40.67;36.67;;;;;;;;5031138;28;8800;-71
2023/02/24 05:47:54;;;;;;;;;42.00;37.33;;;;;;;;5031285;28;8803;-71
2023/02/24 05:50:25;;;;;;;;;43.33;37.33;;;;;;;;5029605;28;8852;-73
2023/02/24 05:52:50;;;;;;;;;36.00;36.00;;;;;;;;5030938;28;8807;-73
2023/02/24 05:55:15;;;;;;;;;38.00;35.00;;;;;;;;5030525;28;8846;-75
2023/02/24 05:57:41;;;;;;;;;40.00;37.00;;;;;;;;5031032;28;8796;-74
2023/02/24 06:00:14;;;;;;;;;36.00;32.00;;;;;;;;5045448;28;8845;-71
2023/02/24 06:49:59;;;;;;;;;52.00;43.00;;;;;;;;5102984;27;13288;-71
2023/02/24 06:52:25;;;;;;;;;50.67;43.33;;;;;;;;5033340;27;13570;-67
2023/02/24 06:54:51;;;;;;;;;53.25;42.00;;;;;;;;5060464;28;13592;-75
2023/02/24 06:57:16;;;;;;;;;46.00;42.40;;;;;;;;5060527;28;14452;-68
2023/02/24 06:59:42;;;;;;;;;44.50;41.00;;;;;;;;5073292;28;13590;-73
2023/02/24 07:02:09;;;;;;;;;49.50;41.50;;;;;;;;5059797;28;13610;-69
2023/02/24 07:04:42;;;;;;;;;49.00;43.60;;;;;;;;5059790;28;13654;-69
2023/02/24 07:07:07;;;;;;;;;51.00;43.50;;;;;;;;5059940;28;13634;-69
2023/02/24 07:09:34;;;;;;;;;47.33;43.33;;;;;;;;5060255;28;13575;-70
2023/02/24 07:12:01;;;;;;;;;52.50;41.75;;;;;;;;5060520;28;13648;-69
2023/02/24 07:14:29;;;;;;;;;54.25;43.50;;;;;;;;5061716;28;13579;-68
2023/02/24 07:16:56;;;;;;;;;49.80;45.00;;;;;;;;5062131;28;15158;-68
2023/02/24 07:19:24;;;;;;;;;43.80;40.60;;;;;;;;5061795;28;13714;-68
2023/02/24 07:21:51;;;;;;;;;55.80;43.00;;;;;;;;5076612;28;13652;-68
2023/02/24 07:24:23;;;;;;;;;55.20;46.00;;;;;;;;5061761;28;13599;-72
2023/02/24 07:26:55;;;;;;;;;53.20;46.40;;;;;;;;5059401;28;13611;-69
2023/02/24 07:29:20;;;;;;;;;55.00;44.50;;;;;;;;5046997;28;13683;-68
2023/02/24 07:31:47;;;;;;;;;45.40;41.00;;;;;;;;5041254;28;13657;-69
2023/02/24 07:34:22;;;;;;;;;54.00;45.80;;;;;;;;5041565;28;13770;-68
2023/02/24 07:36:50;;;;;;;;;55.50;45.25;;;;;;;;5041352;28;13756;-68
2023/02/24 07:39:15;;;;;;;;;51.00;45.00;;;;;;;;5041367;28;14245;-69
2023/02/24 07:41:49;;;;;;;;;48.00;42.67;;;;;;;;5040434;28;13613;-68
2023/02/24 07:44:15;;;;;;;;;58.00;44.67;;;;;;;;5040962;28;14367;-68
2023/02/24 07:46:41;;;;;;;;;52.75;44.50;;;;;;;;5041032;28;13840;-68
2023/02/24 07:49:10;;;;;;;;;50.00;42.00;;;;;;;;5040964;28;13736;-68
2023/02/24 07:51:35;;;;;;;;;52.50;42.75;;;;;;;;5040602;28;13620;-69
2023/02/24 07:54:02;;;;;;;;;50.25;40.25;;;;;;;;5046433;28;13579;-68
2023/02/24 07:56:29;;;;;;;;;56.40;45.00;;;;;;;;5059853;28;13599;-70
2023/02/24 07:58:59;;;;;;;;;52.00;41.75;;;;;;;;5060151;28;13597;-70
2023/02/24 08:01:29;;;;;;;;;55.80;48.00;;;;;;;;5047089;28;13688;-70
2023/02/24 08:03:55;;;;;;;;;51.50;42.75;;;;;;;;5047593;28;14800;-70
2023/02/24 08:06:26;;;;;;;;;51.25;43.75;;;;;;;;5047579;28;13753;-70
2023/02/24 08:08:58;;;;;;;;;58.25;49.00;;;;;;;;5046052;28;13598;-70
2023/02/24 08:11:34;;;;;;;;;51.60;44.00;;;;;;;;5045757;28;13596;-70
2023/02/24 08:14:12;;;;;;;;;62.50;49.75;;;;;;;;5045743;28;13578;-71
2023/02/24 08:16:59;;;;;;;;;52.00;44.75;;;;;;;;5047161;28;13616;-67
2023/02/24 08:19:38;;;;;;;;;56.00;44.00;;;;;;;;5047268;28;13599;-67
2023/02/24 08:22:22;;;;;;;;;57.75;45.50;;;;;;;;5046868;28;13700;-67
2023/02/24 08:24:51;;;;;;;;;54.00;44.00;;;;;;;;5045626;28;13824;-70
2023/02/24 08:27:19;;;;;;;;;59.00;49.00;;;;;;;;5045988;28;13606;-72
2023/02/24 08:30:22;;;;;;;;;50.75;43.50;;;;;;;;5046088;28;14545;-71
2023/02/24 08:32:45;;;;;;;;;57.00;46.00;;;;;;;;5045511;28;13748;-72
2023/02/24 08:35:17;;;;;;;;;56.40;42.00;;;;;;;;5046904;28;13595;-71
2023/02/24 08:37:52;;;;;;;;;47.50;41.50;;;;;;;;5046349;28;13607;-72
2023/02/24 08:43:15;;;;;;;;;57.80;45.60;;;;;;;;5046359;28;13532;-69
2023/02/24 08:46:11;;;;;;;;;56.60;44.00;;;;;;;;5046196;28;13618;-69
2023/02/24 08:48:59;;;;;;;;;58.75;45.00;;;;;;;;5046034;28;13613;-69
2023/02/24 08:51:29;;;;;;;;;54.60;45.00;;;;;;;;5042898;28;13644;-69
2023/02/24 08:53:59;;;;;;;;;54.00;45.00;;;;;;;;5040908;28;14335;-74
2023/02/24 08:56:28;;;;;;;;;53.25;46.25;;;;;;;;5045979;28;14407;-70
2023/02/24 08:59:03;;;;;;;;;55.60;43.40;;;;;;;;5045486;28;13615;-70
2023/02/24 09:01:35;;;;;;;;;53.40;40.60;;;;;;;;5045997;28;13684;-70
2023/02/24 09:04:03;;;;;;;;;56.50;45.00;;;;;;;;5045890;28;13600;-71
2023/02/24 09:06:45;;;;;;;;;56.00;45.50;;;;;;;;5046142;28;14373;-70
2023/02/24 09:09:19;;;;;;;;;58.40;47.60;;;;;;;;5045771;28;13632;-69
2023/02/24 09:11:54;;;;;;;;;55.60;43.00;;;;;;;;5044610;28;14327;-69
2023/02/24 09:14:20;;;;;;;;;59.50;49.50;;;;;;;;5044418;28;13594;-69
2023/02/24 09:17:01;;;;;;;;;59.00;48.00;;;;;;;;5044554;28;13592;-69
2023/02/24 09:19:39;;;;;;;;;54.00;45.80;;;;;;;;5045028;28;13615;-70
2023/02/24 09:22:28;;;;;;;;;54.60;47.00;;;;;;;;5044401;28;13612;-70
2023/02/24 09:25:16;;;;;;;;;57.00;47.00;;;;;;;;5045094;28;13599;-70
2023/02/24 09:27:41;;;;;;;;;56.00;44.25;;;;;;;;5045204;28;13579;-72
2023/02/24 09:30:24;;;;;;;;;57.50;47.50;;;;;;;;5043762;28;13616;-70
2023/02/24 09:32:49;;;;;;;;;50.00;43.00;;;;;;;;5046210;28;13631;-69
2023/02/24 09:35:24;;;;;;;;;51.75;43.75;;;;;;;;5065418;28;13587;-70
2023/02/24 09:37:52;;;;;;;;;55.25;46.25;;;;;;;;5064257;28;13566;-70
2023/02/24 09:42:45;;;;;;;;;59.75;47.00;;;;;;;;5045489;28;13563;-69
2023/02/24 09:45:33;;;;;;;;;54.25;44.00;;;;;;;;5065104;28;13617;-71
2023/02/24 09:48:09;;;;;;;;;56.20;44.20;;;;;;;;5065140;28;13612;-69
2023/02/24 09:50:59;;;;;;;;;56.75;43.00;;;;;;;;5044516;28;13634;-70
2023/02/24 09:53:28;;;;;;;;;52.50;43.00;;;;;;;;5044989;28;13621;-70
2023/02/24 09:56:14;;;;;;;;;49.80;44.40;;;;;;;;5038988;28;14077;-71
2023/02/24 09:59:08;;;;;;;;;56.75;43.25;;;;;;;;5031779;28;14524;-71
2023/02/24 10:01:51;;;;;;;;;59.25;47.00;;;;;;;;5045092;28;14369;-72
2023/02/24 10:04:21;;;;;;;;;63.40;47.60;;;;;;;;5044762;28;13636;-72
2023/02/24 10:06:51;;;;;;;;;54.00;46.33;;;;;;;;5045024;28;13655;-72
2023/02/24 10:09:23;;;;;;;;;54.80;45.80;;;;;;;;5043868;28;13605;-71
2023/02/24 10:11:53;;;;;;;;;54.40;43.80;;;;;;;;5045139;28;13674;-72
2023/02/24 10:14:28;;;;;;;;;59.20;48.80;;;;;;;;5044468;28;13670;-72
2023/02/24 10:19:40;;;;;;;;;59.00;48.00;;;;;;;;5043756;28;13559;-73
2023/02/24 10:22:06;;;;;;;;;56.00;46.40;;;;;;;;5044809;28;14245;-72
2023/02/24 10:24:33;;;;;;;;;54.50;44.75;;;;;;;;5043975;28;13604;-72
2023/02/24 10:27:13;;;;;;;;;55.25;44.25;;;;;;;;5044451;28;13665;-72
2023/02/24 10:29:59;;;;;;;;;54.00;45.00;;;;;;;;5043519;28;13629;-71
2023/02/24 10:32:33;;;;;;;;;53.50;44.00;;;;;;;;5044642;28;13485;-70
2023/02/24 10:35:00;;;;;;;;;59.25;48.25;;;;;;;;5044407;28;13630;-71
2023/02/24 10:37:27;;;;;;;;;61.00;49.75;;;;;;;;5044835;28;13546;-69
2023/02/24 10:39:55;;;;;;;;;55.75;47.00;;;;;;;;5043135;28;13589;-73
2023/02/24 10:42:33;;;;;;;;;58.00;47.25;;;;;;;;5043611;28;13575;-69
2023/02/24 10:45:10;;;;;;;;;58.25;48.75;;;;;;;;5044503;28;13654;-72
2023/02/24 10:47:43;;;;;;;;;65.25;50.50;;;;;;;;5044550;28;13535;-72
2023/02/24 10:50:30;;;;;;;;;56.80;47.20;;;;;;;;5044750;28;13615;-76
2023/02/24 10:58:27;;;;;;;;;57.40;48.40;;;;;;;;5044450;28;13755;-76
2023/02/24 11:03:41;;;;;;;;;61.80;48.40;;;;;;;;5044602;28;13560;-76
2023/02/24 11:17:25;;;;;;;;;57.75;47.75;;;;;;;;5044487;28;13562;-76
2023/02/24 11:19:55;;;;;;;;;59.00;47.00;;;;;;;;5044581;28;13560;-76
2023/02/24 11:22:22;;;;;;;;;57.20;46.80;;;;;;;;5044053;28;13644;-76
2023/02/24 11:24:49;;;;;;;;;55.50;46.00;;;;;;;;5043973;28;13662;-77
2023/02/24 11:27:17;;;;;;;;;56.75;47.75;;;;;;;;5029079;28;13723;-72
2023/02/24 11:29:42;;;;;;;;;57.50;46.50;;;;;;;;5024139;28;13611;-73
2023/02/24 11:32:08;;;;;;;;;53.00;44.00;;;;;;;;5024354;28;13660;-73
2023/02/24 11:34:52;;;;;;;;;57.75;47.00;;;;;;;;5025057;28;13601;-74
2023/02/24 11:37:36;;;;;;;;;56.50;46.75;;;;;;;;5027997;28;13669;-75
2023/02/24 11:40:16;;;;;;;;;59.80;45.20;;;;;;;;5027861;28;13596;-71
2023/02/24 11:42:45;;;;;;;;;49.00;41.00;;;;;;;;5028048;28;13702;-71
2023/02/24 11:45:42;;;;;;;;;44.00;38.00;;;;;;;;5027886;28;13607;-70
2023/02/24 11:48:14;;;;;;;;;46.75;41.00;;;;;;;;5044901;28;13460;-70
2023/02/24 11:50:44;;;;;;;;;48.00;39.60;;;;;;;;5044890;28;13446;-69
2023/02/24 11:53:29;;;;;;;;;42.00;38.25;;;;;;;;5045540;28;13413;-69
2023/02/24 11:55:58;;;;;;;;;50.00;42.75;;;;;;;;5044399;28;13418;-69
2023/02/24 11:58:31;;;;;;;;;51.75;41.00;;;;;;;;5045154;28;13609;-69
2023/02/24 12:01:00;;;;;;;;;46.75;39.75;;;;;;;;5045225;28;13533;-69
2023/02/24 12:03:34;;;;;;;;;48.00;41.00;;;;;;;;5045185;28;13504;-68
2023/02/24 12:06:04;;;;;;;;;53.00;43.00;;;;;;;;5044906;28;14116;-71
2023/02/24 12:08:32;;;;;;;;;44.00;34.80;;;;;;;;5027740;28;13458;-71
2023/02/24 12:11:03;;;;;;;;;36.25;33.75;;;;;;;;5044869;28;13434;-70
2023/02/24 12:13:43;;;;;;;;;37.50;36.00;;;;;;;;5060742;28;13465;-72
2023/02/24 12:16:20;;;;;;;;;38.80;34.20;;;;;;;;5064676;28;13472;-70
2023/02/24 12:18:48;;;;;;;;;37.20;34.40;;;;;;;;5057877;28;13412;-71
2023/02/24 12:21:13;;;;;;;;;37.20;32.40;;;;;;;;5055650;28;13620;-70
2023/02/24 12:23:41;;;;;;;;;37.25;33.00;;;;;;;;5036229;28;13653;-71
2023/02/24 12:26:09;;;;;;;;;31.50;29.00;;;;;;;;5026041;28;13829;-69
2023/02/24 12:28:55;;;;;;;;;42.50;33.00;;;;;;;;5022588;28;13809;-68
2023/02/24 12:31:25;;;;;;;;;29.80;27.00;;;;;;;;5027129;28;13633;-67
2023/02/24 12:34:02;;;;;;;;;30.80;28.40;;;;;;;;5026931;28;13594;-66
2023/02/24 12:36:37;;;;;;;;;30.00;28.50;;;;;;;;5032663;28;13622;-66
2023/02/24 12:39:11;;;;;;;;;37.00;28.25;;;;;;;;5024354;28;13680;-66
2023/02/24 12:41:36;;;;;;;;;32.75;27.00;;;;;;;;5026168;28;13593;-66
2023/02/24 12:44:15;;;;;;;;;26.33;22.00;;;;;;;;5025418;28;13587;-66
2023/02/24 12:46:43;;;;;;;;;21.80;20.60;;;;;;;;5025348;28;14286;-67
2023/02/24 12:49:26;;;;;;;;;22.20;21.20;;;;;;;;5021106;28;13631;-67
2023/02/24 12:52:10;;;;;;;;;22.25;22.25;;;;;;;;5022337;28;13605;-66
2023/02/24 12:54:38;;;;;;;;;17.25;17.25;;;;;;;;5020747;28;14380;-65
2023/02/24 12:57:12;;;;;;;;;24.60;18.00;;;;;;;;5022448;28;13638;-66
2023/02/24 12:59:39;;;;;;;;;22.80;19.60;;;;;;;;5026439;28;13637;-66
2023/02/24 13:02:08;;;;;;;;;20.20;18.20;;;;;;;;5026448;28;13629;-69
2023/02/24 13:04:39;;;;;;;;;17.67;17.00;;;;;;;;5025431;28;14360;-68
2023/02/24 13:07:05;;;;;;;;;21.50;19.50;;;;;;;;5026182;28;14669;-68
2023/02/24 13:09:43;;;;;;;;;18.75;16.00;;;;;;;;5026375;28;13615;-66
2023/02/24 13:12:15;;;;;;;;;21.00;17.60;;;;;;;;5026107;28;13586;-65
2023/02/24 13:14:41;;;;;;;;;20.50;18.25;;;;;;;;5025235;28;14362;-66
2023/02/24 13:17:09;;;;;;;;;22.00;19.50;;;;;;;;5025921;28;13584;-70
2023/02/24 13:19:35;;;;;;;;;22.50;18.00;;;;;;;;5026650;28;14561;-68
2023/02/24 13:22:18;;;;;;;;;21.00;16.60;;;;;;;;5026023;28;14729;-69
2023/02/24 13:24:53;;;;;;;;;25.00;21.00;;;;;;;;5020270;28;13848;-67
2023/02/24 13:27:18;;;;;;;;;22.00;18.00;;;;;;;;5019594;28;13663;-69
2023/02/24 13:29:48;;;;;;;;;18.00;18.00;;;;;;;;5004779;28;14296;-71
2023/02/24 13:32:40;;;;;;;;;22.75;22.75;;;;;;;;5006524;28;13682;-67
2023/02/24 13:35:14;;;;;;;;;21.75;19.00;;;;;;;;5020714;28;13558;-67
2023/02/24 13:37:41;;;;;;;;;23.50;22.75;;;;;;;;5021198;28;13699;-68
2023/02/24 13:40:15;;;;;;;;;21.50;17.00;;;;;;;;5024217;28;13593;-67
2023/02/24 13:42:41;;;;;;;;;24.33;24.33;;;;;;;;5024202;28;13667;-67
2023/02/24 13:45:09;;;;;;;;;32.00;25.25;;;;;;;;5024643;28;13504;-66
2023/02/24 13:47:53;;;;;;;;;21.50;18.00;;;;;;;;5023851;28;13597;-67
2023/02/24 13:50:26;;;;;;;;;25.25;21.75;;;;;;;;5021678;28;13643;-67
2023/02/24 13:52:54;;;;;;;;;23.25;21.00;;;;;;;;5034514;28;13713;-66
2023/02/24 13:55:38;;;;;;;;;30.25;23.25;;;;;;;;5026922;28;13602;-66
2023/02/24 13:58:26;;;;;;;;;26.50;21.50;;;;;;;;5018548;28;13619;-66
2023/02/24 14:01:11;;;;;;;;;19.60;18.80;;;;;;;;5006953;28;13646;-67
2023/02/24 14:03:38;;;;;;;;;24.00;21.50;;;;;;;;5005884;28;14402;-67
2023/02/24 14:06:04;;;;;;;;;20.00;20.00;;;;;;;;5005973;28;13644;-67
2023/02/24 14:08:30;;;;;;;;;25.20;22.80;;;;;;;;5020329;28;13639;-66
2023/02/24 14:10:57;;;;;;;;;27.33;24.00;;;;;;;;5006904;28;13642;-67
2023/02/24 14:13:26;;;;;;;;;23.25;21.25;;;;;;;;4986223;28;13630;-68
2023/02/24 14:15:52;;;;;;;;;28.50;22.50;;;;;;;;4985954;28;13622;-68
2023/02/24 14:18:20;;;;;;;;;26.50;24.50;;;;;;;;4985528;28;13632;-68
2023/02/24 14:20:45;;;;;;;;;28.33;23.00;;;;;;;;4985758;28;13735;-68
2023/02/24 14:23:30;;;;;;;;;22.33;22.00;;;;;;;;4985878;28;14341;-68
2023/02/24 14:25:58;;;;;;;;;27.60;23.60;;;;;;;;4985482;28;13607;-70
2023/02/24 14:28:28;;;;;;;;;28.00;25.25;;;;;;;;4984061;28;14466;-71
2023/02/24 14:30:57;;;;;;;;;27.25;25.50;;;;;;;;4986119;28;13710;-72
2023/02/24 14:33:30;;;;;;;;;21.25;19.00;;;;;;;;4985554;28;14575;-69
2023/02/24 14:35:56;;;;;;;;;21.20;18.20;;;;;;;;4985342;28;14460;-72
2023/02/24 14:38:38;;;;;;;;;32.33;26.67;;;;;;;;4985410;28;13743;-69
2023/02/24 14:41:04;;;;;;;;;22.75;20.25;;;;;;;;4984849;28;14636;-72
2023/02/24 14:43:30;;;;;;;;;18.40;17.40;;;;;;;;4983953;28;13836;-72
2023/02/24 14:45:59;;;;;;;;;28.25;23.25;;;;;;;;4985906;28;13683;-72
2023/02/24 14:48:24;;;;;;;;;22.50;19.00;;;;;;;;4985648;28;13703;-72
2023/02/24 14:50:50;;;;;;;;;24.00;21.50;;;;;;;;4985752;28;13584;-72
2023/02/24 14:53:17;;;;;;;;;32.50;26.25;;;;;;;;4985600;28;13611;-72
2023/02/24 14:55:45;;;;;;;;;22.80;22.40;;;;;;;;4999657;28;13645;-71
2023/02/24 14:58:23;;;;;;;;;23.20;20.60;;;;;;;;5000828;28;13678;-71
2023/02/24 15:01:14;;;;;;;;;21.40;21.00;;;;;;;;4985589;28;13716;-71
2023/02/24 15:03:44;;;;;;;;;23.25;23.25;;;;;;;;4985213;28;13607;-71
2023/02/24 15:06:19;;;;;;;;;23.40;20.80;;;;;;;;4985697;28;13595;-73
2023/02/24 15:08:46;;;;;;;;;24.20;24.00;;;;;;;;4985283;28;13626;-72
2023/02/24 15:11:14;;;;;;;;;30.80;27.40;;;;;;;;5001798;28;14319;-71
2023/02/24 15:13:45;;;;;;;;;32.40;25.00;;;;;;;;5014592;28;14397;-71
2023/02/24 15:16:20;;;;;;;;;27.75;25.25;;;;;;;;5017623;28;13832;-72
2023/02/24 15:18:50;;;;;;;;;29.00;26.00;;;;;;;;5016504;28;13865;-72
2023/02/24 15:21:18;;;;;;;;;24.60;23.20;;;;;;;;5007534;28;13530;-71
2023/02/24 15:23:45;;;;;;;;;29.80;28.20;;;;;;;;5007798;28;13617;-72
2023/02/24 15:26:24;;;;;;;;;27.40;25.40;;;;;;;;5008488;28;14417;-70
2023/02/24 15:28:55;;;;;;;;;30.67;28.00;;;;;;;;5023479;28;13631;-71
2023/02/24 15:31:21;;;;;;;;;24.50;24.00;;;;;;;;5008822;28;14878;-70
2023/02/24 15:33:56;;;;;;;;;29.80;27.20;;;;;;;;5008718;28;13747;-70
2023/02/24 15:36:24;;;;;;;;;28.00;28.00;;;;;;;;5008758;28;13578;-72
2023/02/24 15:38:53;;;;;;;;;32.50;29.75;;;;;;;;5007108;28;13678;-71
2023/02/24 15:41:19;;;;;;;;;27.60;26.00;;;;;;;;5007852;28;13803;-72
2023/02/24 15:43:49;;;;;;;;;28.75;23.25;;;;;;;;5007062;28;13709;-71
2023/02/24 15:46:17;;;;;;;;;32.25;28.25;;;;;;;;5008328;28;13702;-74
2023/02/24 15:48:43;;;;;;;;;31.75;28.25;;;;;;;;5007650;28;13743;-70
2023/02/24 15:51:16;;;;;;;;;31.20;29.20;;;;;;;;5008496;28;13574;-71
2023/02/24 15:53:42;;;;;;;;;30.25;26.50;;;;;;;;5007900;28;13588;-77
2023/02/24 15:56:07;;;;;;;;;35.25;28.00;;;;;;;;5019121;28;13693;-74
2023/02/24 15:58:33;;;;;;;;;30.00;27.50;;;;;;;;5008289;28;13716;-73
2023/02/24 16:00:58;;;;;;;;;32.25;29.00;;;;;;;;5008036;28;13592;-73
2023/02/24 16:03:24;;;;;;;;;29.25;25.50;;;;;;;;5007827;28;13702;-73